createdAt,value
2022-09-15T00:02:03.322Z,15.26
2022-09-15T00:05:05.550Z,15.26
2022-09-15T00:08:07.439Z,15.25
2022-09-15T00:11:18.936Z,15.31
2022-09-15T00:14:20.908Z,15.33
2022-09-15T00:17:22.878Z,15.33
2022-09-15T00:20:24.604Z,15.28
2022-09-15T00:23:26.446Z,15.32
2022-09-15T00:26:29.831Z,15.30
2022-09-15T00:29:36.040Z,15.24
2022-09-15T00:32:37.870Z,15.23
2022-09-15T00:35:41.164Z,15.22
2022-09-15T00:38:43.426Z,15.16
2022-09-15T00:41:45.126Z,15.15
2022-09-15T00:44:51.570Z,15.14
2022-09-15T00:47:53.687Z,15.14
2022-09-15T00:50:58.337Z,15.10
2022-09-15T00:54:03.325Z,15.07
2022-09-15T00:57:22.205Z,15.06
2022-09-15T01:00:27.625Z,15.05
2022-09-15T01:03:33.142Z,15.06
2022-09-15T01:06:47.396Z,15.06
2022-09-15T01:10:00.725Z,15.03
2022-09-15T01:13:05.677Z,15.05
2022-09-15T01:16:17.738Z,14.98
2022-09-15T01:20:00.103Z,14.93
2022-09-15T01:23:20.531Z,14.85
2022-09-15T01:27:24.022Z,14.90
2022-09-15T01:30:35.718Z,14.96
2022-09-15T01:33:49.417Z,14.98
2022-09-15T01:36:57.441Z,14.93
2022-09-15T01:40:01.907Z,14.93
2022-09-15T01:43:06.566Z,14.96
2022-09-15T01:46:09.430Z,14.99
2022-09-15T01:49:15.718Z,14.98
2022-09-15T01:52:21.020Z,14.93
2022-09-15T01:55:29.662Z,14.94
2022-09-15T01:58:33.012Z,14.97
2022-09-15T02:01:49.722Z,14.96
2022-09-15T02:05:06.523Z,14.91
2022-09-15T02:08:31.750Z,14.91
2022-09-15T02:11:36.689Z,14.89
2022-09-15T02:14:56.321Z,14.82
2022-09-15T02:17:59.221Z,14.86
2022-09-15T02:21:10.739Z,14.79
2022-09-15T02:24:19.696Z,14.81
2022-09-15T02:27:25.143Z,14.75
2022-09-15T02:30:29.969Z,14.82
2022-09-15T02:33:44.363Z,14.82
2022-09-15T02:36:47.627Z,14.77
2022-09-15T02:40:00.220Z,14.79
2022-09-15T02:43:03.573Z,14.77
2022-09-15T02:46:05.449Z,14.76
2022-09-15T02:49:07.729Z,14.73
2022-09-15T02:52:09.482Z,14.64
2022-09-15T02:55:11.289Z,14.68
2022-09-15T02:58:13.021Z,14.68
2022-09-15T03:01:15.939Z,14.62
2022-09-15T03:04:17.971Z,14.71
2022-09-15T03:07:20.223Z,14.70
2022-09-15T03:10:23.907Z,14.70
2022-09-15T03:13:25.583Z,14.68
2022-09-15T03:16:29.038Z,14.69
2022-09-15T03:19:31.279Z,14.66
2022-09-15T03:22:33.399Z,14.71
2022-09-15T03:25:35.360Z,14.69
2022-09-15T03:28:38.363Z,14.69
2022-09-15T03:31:40.135Z,14.69
2022-09-15T03:34:42.248Z,14.65
2022-09-15T03:37:44.073Z,14.65
2022-09-15T03:41:00.489Z,14.64
2022-09-15T03:44:02.437Z,14.66
2022-09-15T03:47:04.307Z,14.67
2022-09-15T03:50:06.880Z,14.70
2022-09-15T03:53:08.601Z,14.65
2022-09-15T03:56:26.395Z,14.68
2022-09-15T03:59:28.097Z,14.67
2022-09-15T04:02:29.844Z,14.71
2022-09-15T04:05:31.551Z,14.70
2022-09-15T04:08:33.303Z,14.63
2022-09-15T04:11:35.065Z,14.66
2022-09-15T04:14:36.775Z,14.67
2022-09-15T04:17:38.469Z,14.71
2022-09-15T04:20:40.591Z,14.68
2022-09-15T04:23:43.461Z,14.72
2022-09-15T04:26:45.215Z,14.74
2022-09-15T04:29:51.285Z,14.81
2022-09-15T04:32:53.973Z,14.80
2022-09-15T04:36:08.131Z,14.73
2022-09-15T04:39:09.936Z,14.79
2022-09-15T04:42:11.858Z,14.80
2022-09-15T04:45:13.629Z,14.81
2022-09-15T04:48:15.385Z,14.85
2022-09-15T04:51:20.652Z,14.85
2022-09-15T04:54:22.461Z,14.86
2022-09-15T04:57:25.391Z,14.87
2022-09-15T05:00:27.109Z,14.89
2022-09-15T05:03:29.054Z,14.91
2022-09-15T05:06:30.973Z,14.97
2022-09-15T05:09:32.765Z,14.94
2022-09-15T05:12:34.690Z,14.94
2022-09-15T05:15:36.561Z,15.06
2022-09-15T05:18:40.207Z,15.19
2022-09-15T05:21:41.975Z,15.33
2022-09-15T05:24:43.698Z,15.41
2022-09-15T05:27:45.475Z,15.50
2022-09-15T05:30:47.313Z,15.55
2022-09-15T05:33:50.768Z,15.62
2022-09-15T05:36:52.450Z,15.59
2022-09-15T05:39:54.276Z,15.66
2022-09-15T05:42:56.004Z,15.74
2022-09-15T05:45:57.739Z,15.84
2022-09-15T05:48:59.587Z,15.74
2022-09-15T05:52:01.469Z,15.77
2022-09-15T05:55:03.601Z,15.92
2022-09-15T05:58:05.319Z,15.95
2022-09-15T06:01:13.348Z,15.92
2022-09-15T06:04:15.073Z,15.94
2022-09-15T06:07:16.776Z,15.99
2022-09-15T06:10:18.544Z,15.96
2022-09-15T06:13:20.354Z,15.97
2022-09-15T06:16:24.014Z,15.96
2022-09-15T06:19:25.815Z,15.89
2022-09-15T06:22:28.417Z,15.87
2022-09-15T06:25:30.176Z,15.86
2022-09-15T06:28:32.364Z,15.77
2022-09-15T06:31:34.748Z,15.70
2022-09-15T06:34:39.293Z,15.62
2022-09-15T06:37:41.016Z,15.63
2022-09-15T06:40:42.869Z,15.65
2022-09-15T06:43:45.357Z,15.66
2022-09-15T06:46:47.756Z,15.60
2022-09-15T06:49:49.562Z,15.55
2022-09-15T06:52:51.273Z,15.41
2022-09-15T06:55:53.045Z,15.54
2022-09-15T06:58:56.162Z,15.61
2022-09-15T07:02:02.704Z,15.67
2022-09-15T07:05:06.780Z,15.73
2022-09-15T07:08:08.515Z,15.78
2022-09-15T07:11:10.761Z,15.87
2022-09-15T07:14:12.654Z,15.92
2022-09-15T07:17:14.350Z,15.98
2022-09-15T07:20:16.240Z,15.96
2022-09-15T07:23:19.315Z,15.93
2022-09-15T07:26:23.893Z,16.00
2022-09-15T07:29:25.775Z,16.02
2022-09-15T07:32:27.535Z,15.93
2022-09-15T07:35:29.290Z,15.97
2022-09-15T07:38:31.178Z,16.13
2022-09-15T07:41:33.376Z,15.89
2022-09-15T07:44:35.100Z,15.80
2022-09-15T07:47:37.423Z,15.96
2022-09-15T07:50:39.186Z,16.02
2022-09-15T07:53:41.510Z,16.14
2022-09-15T07:56:43.594Z,16.31
2022-09-15T07:59:45.272Z,16.41
2022-09-15T08:02:47.279Z,16.57
2022-09-15T08:05:48.998Z,16.67
2022-09-15T08:08:55.052Z,16.83
2022-09-15T08:11:58.196Z,16.86
2022-09-15T08:14:59.952Z,16.98
2022-09-15T08:18:02.412Z,16.97
2022-09-15T08:21:09.518Z,16.93
2022-09-15T08:24:11.243Z,17.03
2022-09-15T08:27:12.940Z,17.25
2022-09-15T08:30:14.686Z,17.45
2022-09-15T08:33:16.960Z,17.96
2022-09-15T08:36:19.153Z,18.25
2022-09-15T08:39:21.042Z,18.41
2022-09-15T08:42:29.269Z,18.44
2022-09-15T08:45:44.542Z,18.56
2022-09-15T08:48:53.028Z,18.93
2022-09-15T08:51:58.196Z,19.33
2022-09-15T08:55:13.224Z,19.67
2022-09-15T08:58:19.315Z,19.50
2022-09-15T09:01:32.766Z,19.81
2022-09-15T09:04:50.614Z,20.13
2022-09-15T09:08:46.419Z,20.45
2022-09-15T09:12:03.299Z,20.80
2022-09-15T09:15:20.040Z,21.01
2022-09-15T09:18:52.601Z,21.36
2022-09-15T09:22:01.222Z,21.46
2022-09-15T09:25:21.178Z,21.57
2022-09-15T09:28:32.472Z,20.84
2022-09-15T09:31:36.476Z,20.89
2022-09-15T09:34:45.648Z,20.97
2022-09-15T09:37:47.879Z,20.85
2022-09-15T09:40:49.888Z,20.91
2022-09-15T09:43:54.492Z,20.46
2022-09-15T09:46:56.162Z,20.79
2022-09-15T09:49:58.221Z,20.92
2022-09-15T09:53:00.188Z,21.01
2022-09-15T09:56:18.572Z,20.61
2022-09-15T09:59:50.582Z,20.84
2022-09-15T10:02:52.673Z,20.65
2022-09-15T10:06:24.661Z,21.14
2022-09-15T10:09:31.174Z,21.25
2022-09-15T10:12:40.925Z,20.90
2022-09-15T10:15:43.427Z,20.83
2022-09-15T10:18:49.884Z,20.92
2022-09-15T10:21:54.610Z,21.02
2022-09-15T10:24:57.363Z,21.20
2022-09-15T10:28:13.234Z,21.19
2022-09-15T10:31:31.575Z,20.87
2022-09-15T10:34:33.348Z,21.27
2022-09-15T10:37:53.638Z,21.14
2022-09-15T10:41:13.849Z,21.44
2022-09-15T10:44:18.158Z,21.66
2022-09-15T10:47:43.844Z,21.87
2022-09-15T10:51:10.223Z,22.07
2022-09-15T10:54:31.774Z,22.33
2022-09-15T10:57:42.307Z,22.47
2022-09-15T11:01:23.062Z,22.46
2022-09-15T11:04:30.929Z,22.56
2022-09-15T11:08:01.892Z,22.87
2022-09-15T11:11:32.212Z,23.32
2022-09-15T11:14:44.529Z,23.48
2022-09-15T11:18:14.151Z,23.77
2022-09-15T11:21:21.760Z,23.93
2022-09-15T11:24:29.845Z,23.48
2022-09-15T11:27:41.034Z,22.99
2022-09-15T11:31:01.079Z,22.77
2022-09-15T11:34:33.203Z,22.43
2022-09-15T11:37:43.401Z,22.15
2022-09-15T11:41:11.541Z,21.93
2022-09-15T11:44:22.940Z,21.79
2022-09-15T11:47:38.703Z,21.63
2022-09-15T11:50:45.739Z,21.25
2022-09-15T11:53:55.758Z,21.16
2022-09-15T11:56:59.620Z,21.08
2022-09-15T12:00:10.608Z,20.86
2022-09-15T12:03:37.841Z,20.50
2022-09-15T12:10:33.927Z,20.40
2022-09-15T12:13:36.814Z,20.48
2022-09-15T12:16:38.811Z,20.56
2022-09-15T12:20:00.290Z,20.65
2022-09-15T12:23:21.032Z,20.64
2022-09-15T12:26:25.178Z,20.82
2022-09-15T12:29:26.924Z,20.99
2022-09-15T12:32:33.245Z,20.95
2022-09-15T12:35:35.028Z,21.41
2022-09-15T12:38:36.721Z,21.89
2022-09-15T12:41:47.502Z,22.04
2022-09-15T12:45:13.285Z,21.98
2022-09-15T12:48:21.452Z,22.24
2022-09-15T12:51:28.250Z,22.17
2022-09-15T12:54:33.141Z,22.45
2022-09-15T12:57:37.034Z,22.77
2022-09-15T13:00:54.844Z,22.89
2022-09-15T13:04:03.392Z,22.58
2022-09-15T13:07:18.469Z,22.89
2022-09-15T13:10:33.308Z,22.77
2022-09-15T13:13:39.971Z,23.12
2022-09-15T13:16:43.772Z,22.91
2022-09-15T13:19:52.847Z,22.47
2022-09-15T13:22:58.721Z,22.31
2022-09-15T13:26:01.851Z,21.60
2022-09-15T13:29:06.367Z,21.67
2022-09-15T13:32:33.319Z,21.57
2022-09-15T13:36:00.440Z,21.17
2022-09-15T13:39:23.280Z,20.88
2022-09-15T13:42:29.722Z,20.82
2022-09-15T13:46:13.696Z,20.74
2022-09-15T13:49:24.564Z,20.76
2022-09-15T13:52:38.468Z,21.16
2022-09-15T13:55:43.279Z,21.59
2022-09-15T13:59:07.281Z,21.81
2022-09-15T14:02:08.955Z,22.44
2022-09-15T14:05:12.152Z,22.71
2022-09-15T14:08:24.820Z,22.65
2022-09-15T14:11:32.383Z,22.40
2022-09-15T14:14:42.524Z,22.37
2022-09-15T14:17:45.227Z,22.04
2022-09-15T14:20:58.418Z,21.86
2022-09-15T14:24:17.391Z,21.67
2022-09-15T14:27:22.509Z,22.15
2022-09-15T14:30:29.594Z,22.11
2022-09-15T14:33:40.910Z,22.10
2022-09-15T14:36:43.176Z,22.26
2022-09-15T14:39:54.744Z,22.31
2022-09-15T14:42:57.182Z,22.48
2022-09-15T14:46:38.026Z,22.46
2022-09-15T14:49:39.706Z,22.47
2022-09-15T14:52:46.552Z,22.21
2022-09-15T14:56:08.280Z,21.91
2022-09-15T14:59:26.033Z,21.55
2022-09-15T15:02:52.555Z,21.34
2022-09-15T15:06:27.669Z,21.12
2022-09-15T15:09:41.445Z,20.95
2022-09-15T15:12:48.527Z,20.82
2022-09-15T15:15:50.808Z,20.71
2022-09-15T15:18:53.466Z,20.56
2022-09-15T15:22:07.379Z,20.42
2022-09-15T15:25:24.601Z,20.33
2022-09-15T15:28:30.977Z,20.17
2022-09-15T15:31:32.849Z,20.02
2022-09-15T15:34:34.782Z,19.84
2022-09-15T15:37:36.975Z,19.66
2022-09-15T15:40:40.807Z,19.43
2022-09-15T15:43:55.221Z,19.21
2022-09-15T15:47:02.945Z,18.90
2022-09-15T15:50:19.106Z,18.66
2022-09-15T15:53:20.757Z,18.04
2022-09-15T15:56:26.090Z,17.93
2022-09-15T15:59:28.227Z,18.04
2022-09-15T16:02:30.543Z,17.96
2022-09-15T16:05:33.853Z,18.23
2022-09-15T16:08:39.837Z,18.52
2022-09-15T16:11:43.095Z,18.59
2022-09-15T16:14:44.978Z,18.58
2022-09-15T16:17:48.583Z,18.53
2022-09-15T16:20:50.529Z,18.42
2022-09-15T16:23:52.336Z,18.23
2022-09-15T16:26:59.270Z,18.14
2022-09-15T16:30:03.774Z,18.02
2022-09-15T16:33:05.615Z,17.97
2022-09-15T16:36:12.905Z,17.89
2022-09-15T16:39:14.647Z,17.78
2022-09-15T16:42:16.287Z,17.71
2022-09-15T16:45:36.514Z,17.63
2022-09-15T16:48:43.289Z,17.57
2022-09-15T16:51:45.154Z,17.43
2022-09-15T16:54:48.200Z,17.33
2022-09-15T16:57:50.498Z,17.29
2022-09-15T17:00:53.720Z,17.25
2022-09-15T17:03:56.032Z,17.17
2022-09-15T17:06:58.838Z,17.07
2022-09-15T17:10:02.986Z,16.99
2022-09-15T17:13:05.360Z,16.91
2022-09-15T17:16:08.261Z,16.78
2022-09-15T17:19:10.171Z,16.74
2022-09-15T17:22:12.069Z,16.69
2022-09-15T17:25:42.594Z,16.60
2022-09-15T17:28:44.499Z,16.51
2022-09-15T17:31:46.675Z,16.38
2022-09-15T17:34:48.340Z,16.30
2022-09-15T17:37:51.122Z,16.18
2022-09-15T17:40:55.234Z,16.18
2022-09-15T17:43:58.063Z,16.13
2022-09-15T17:47:00.751Z,16.12
2022-09-15T17:50:03.604Z,16.08
2022-09-15T17:53:21.440Z,16.05
2022-09-15T17:56:23.307Z,16.04
2022-09-15T17:59:25.087Z,15.99
2022-09-15T18:02:27.294Z,15.93
2022-09-15T18:05:31.378Z,15.93
2022-09-15T18:08:34.127Z,15.86
2022-09-15T18:11:36.114Z,15.77
2022-09-15T18:14:38.331Z,15.68
2022-09-15T18:17:40.226Z,15.55
2022-09-15T18:20:42.439Z,15.48
2022-09-15T18:23:45.124Z,15.39
2022-09-15T18:26:46.899Z,15.31
2022-09-15T18:29:48.644Z,15.22
2022-09-15T18:32:51.169Z,15.15
2022-09-15T18:35:55.802Z,15.14
2022-09-15T18:38:57.906Z,15.13
2022-09-15T18:41:59.662Z,15.14
2022-09-15T18:45:01.902Z,15.12
2022-09-15T18:48:06.263Z,15.05
2022-09-15T18:51:12.003Z,14.98
2022-09-15T18:54:18.046Z,14.93
2022-09-15T18:57:20.050Z,14.90
2022-09-15T19:00:24.251Z,14.89
2022-09-15T19:03:26.145Z,14.91
2022-09-15T19:06:27.875Z,14.93
2022-09-15T19:09:29.883Z,15.02
2022-09-15T19:12:31.709Z,14.96
2022-09-15T19:15:34.558Z,14.93
2022-09-15T19:18:36.930Z,14.87
2022-09-15T19:21:38.719Z,14.82
2022-09-15T19:24:40.812Z,14.84
2022-09-15T19:27:43.101Z,14.87
2022-09-15T19:30:44.898Z,14.91
2022-09-15T19:33:46.809Z,14.89
2022-09-15T19:36:48.638Z,14.92
2022-09-15T19:39:50.697Z,14.92
2022-09-15T19:42:52.622Z,14.93
2022-09-15T19:45:54.372Z,14.95
2022-09-15T19:48:56.333Z,14.97
2022-09-15T19:51:58.421Z,14.97
2022-09-15T19:55:00.287Z,14.95
2022-09-15T19:58:02.077Z,14.94
2022-09-15T20:01:03.906Z,14.90
2022-09-15T20:04:06.892Z,14.86
2022-09-15T20:07:08.672Z,14.78
2022-09-15T20:10:10.492Z,14.73
2022-09-15T20:13:12.360Z,14.69
2022-09-15T20:16:19.608Z,14.70
2022-09-15T20:19:21.578Z,14.69
2022-09-15T20:22:23.720Z,14.69
2022-09-15T20:25:25.556Z,14.72
2022-09-15T20:28:27.779Z,14.72
2022-09-15T20:31:32.889Z,14.74
2022-09-15T20:34:34.637Z,14.72
2022-09-15T20:37:37.636Z,14.71
2022-09-15T20:40:39.649Z,14.68
2022-09-15T20:43:42.511Z,14.63
2022-09-15T20:46:44.342Z,14.59
2022-09-15T20:49:46.214Z,14.53
2022-09-15T20:52:48.928Z,14.52
2022-09-15T20:55:50.875Z,14.49
2022-09-15T20:58:58.522Z,14.53
2022-09-15T21:02:00.312Z,14.55
2022-09-15T21:05:02.084Z,14.56
2022-09-15T21:08:03.826Z,14.57
2022-09-15T21:11:08.945Z,14.55
2022-09-15T21:14:14.289Z,14.54
2022-09-15T21:17:16.544Z,14.49
2022-09-15T21:20:18.299Z,14.48
2022-09-15T21:23:20.020Z,14.47
2022-09-15T21:26:24.030Z,14.46
2022-09-15T21:29:27.656Z,14.44
2022-09-15T21:32:29.982Z,14.41
2022-09-15T21:35:32.615Z,14.41
2022-09-15T21:38:35.035Z,14.43
2022-09-15T21:41:36.853Z,14.46
2022-09-15T21:44:38.901Z,14.45
2022-09-15T21:47:40.631Z,14.41
2022-09-15T21:50:52.838Z,14.39
2022-09-15T21:53:56.935Z,14.40
2022-09-15T21:56:58.726Z,14.36
2022-09-15T22:00:00.395Z,14.29
2022-09-15T22:03:02.206Z,14.07
2022-09-15T22:06:04.095Z,14.03
2022-09-15T22:09:15.277Z,13.92
2022-09-15T22:12:17.084Z,13.60
2022-09-15T22:15:18.823Z,13.56
2022-09-15T22:18:20.848Z,13.36
2022-09-15T22:21:25.333Z,13.55
2022-09-15T22:24:27.005Z,13.45
2022-09-15T22:27:28.768Z,13.42
2022-09-15T22:30:30.504Z,13.37
2022-09-15T22:33:32.852Z,13.35
2022-09-15T22:36:35.235Z,13.29
2022-09-15T22:39:58.115Z,13.30
2022-09-15T22:42:58.954Z,13.25
2022-09-15T22:46:00.863Z,13.21
2022-09-15T22:49:02.866Z,13.12
2022-09-15T22:52:04.845Z,13.05
2022-09-15T22:55:06.872Z,13.05
2022-09-15T22:58:08.674Z,13.04
2022-09-15T23:01:14.317Z,12.99
2022-09-15T23:04:16.078Z,12.85
2022-09-15T23:07:17.861Z,12.87
2022-09-15T23:10:19.531Z,12.93
2022-09-15T23:13:21.265Z,12.88
2022-09-15T23:16:24.444Z,12.82
2022-09-15T23:19:26.517Z,12.89
2022-09-15T23:22:28.254Z,12.91
2022-09-15T23:25:29.940Z,12.91
2022-09-15T23:28:32.330Z,12.89
2022-09-15T23:31:34.102Z,12.91
2022-09-15T23:34:35.921Z,12.89
2022-09-15T23:37:37.856Z,12.90
2022-09-15T23:40:42.610Z,12.81
2022-09-15T23:43:44.584Z,12.84
2022-09-15T23:46:46.461Z,12.80
2022-09-15T23:49:48.401Z,12.77
2022-09-15T23:52:50.075Z,12.73
2022-09-15T23:55:52.440Z,12.71
2022-09-15T23:58:54.423Z,12.74
